Time;durP1;ratioP1;P1;durP2;ratioP2;P2;SDS_P1;SDS_P2;PMS_P1;PMS_P2;Temp;Humidity;BMP_temperature;BMP_pressure;BME280_temperature;BME280_humidity;BME280_pressure;Samples;Min_cycle;Max_cycle;Signal;HPM_P1;HPM_P2
2022/12/10 00:00:09;;;;;;;11.88;5.55;;;;;;;1.09;100.00;100488.39;1765523;79;21022;-79
2022/12/10 00:02:55;;;;;;;12.33;6.45;;;;;;;1.10;100.00;100477.92;1773179;79;21465;-79
2022/12/10 00:05:40;;;;;;;16.25;6.15;;;;;;;1.10;100.00;100475.23;1764047;80;21070;-79
2022/12/10 00:08:24;;;;;;;11.25;6.17;;;;;;;1.06;100.00;100471.31;1706057;82;21054;-79
2022/12/10 00:11:10;;;;;;;13.50;6.53;;;;;;;1.05;100.00;100463.77;1696185;83;20994;-79
2022/12/10 00:13:55;;;;;;;10.60;5.75;;;;;;;1.05;100.00;100458.38;1745885;80;21015;-79
2022/12/10 00:16:40;;;;;;;13.38;6.17;;;;;;;1.03;100.00;100452.91;1700381;83;20863;-79
2022/12/10 00:19:27;;;;;;;14.28;7.35;;;;;;;0.99;100.00;100449.84;1718126;82;20985;-79
2022/12/10 00:22:11;;;;;;;17.25;7.00;;;;;;;0.99;100.00;100444.46;1753602;80;21038;-79
2022/12/10 00:24:56;;;;;;;16.73;6.80;;;;;;;0.97;100.00;100437.64;1749143;80;21489;-79
2022/12/10 00:27:40;;;;;;;15.78;7.50;;;;;;;0.97;100.00;100439.81;1749237;80;21093;-79
2022/12/10 00:30:25;;;;;;;15.32;6.92;;;;;;;0.95;100.00;100434.34;1699120;83;21065;-79
2022/12/10 00:33:10;;;;;;;17.12;7.55;;;;;;;0.94;100.00;100439.41;1691986;83;21067;-79
2022/12/10 00:35:54;;;;;;;15.68;8.23;;;;;;;0.94;100.00;100439.41;1750034;80;20996;-79
2022/12/10 00:38:39;;;;;;;17.48;8.38;;;;;;;0.95;100.00;100431.13;1739686;80;21066;-79
2022/12/10 00:41:23;;;;;;;18.20;8.28;;;;;;;0.95;100.00;100428.96;1735631;80;21057;-79
2022/12/10 00:44:08;;;;;;;20.60;8.03;;;;;;;0.93;100.00;100418.93;1744771;80;21000;-79
2022/12/10 00:46:52;;;;;;;14.07;7.00;;;;;;;0.90;100.00;100412.64;1746524;80;20921;-79
2022/12/10 00:49:37;;;;;;;18.25;8.55;;;;;;;0.92;100.00;100409.22;1750266;80;20995;-79
2022/12/10 00:52:21;;;;;;;18.92;8.45;;;;;;;0.93;100.00;100408.16;1745217;80;21507;-79
2022/12/10 00:55:06;;;;;;;15.13;7.42;;;;;;;0.92;100.00;100406.53;1740269;81;21498;-79
2022/12/10 00:57:51;;;;;;;13.43;6.80;;;;;;;0.90;100.00;100411.30;1761246;80;21551;-79
2022/12/10 04:18:42;;;;;;;8.68;4.72;;;;;;;0.66;100.00;100260.40;1850599;76;29588;-77
2022/12/10 04:27:37;;;;;;;6.08;3.00;;;;;;;0.78;100.00;100257.30;1714002;81;21573;-77
2022/12/10 04:30:22;;;;;;;6.72;3.15;;;;;;;0.78;100.00;100258.65;1742024;82;21481;-77
2022/12/10 04:33:07;;;;;;;6.12;2.52;;;;;;;0.80;100.00;100267.86;1740681;81;20983;-77
2022/12/10 04:35:52;;;;;;;3.60;2.42;;;;;;;0.80;100.00;100263.30;1709947;82;21011;-77
2022/12/10 04:38:36;;;;;;;4.10;2.47;;;;;;;0.83;100.00;100254.77;1740675;80;21077;-77
2022/12/10 04:41:20;;;;;;;4.70;2.52;;;;;;;0.82;100.00;100256.36;1721353;81;21059;-77
2022/12/10 04:44:05;;;;;;;4.83;2.15;;;;;;;0.83;100.00;100255.30;1734592;81;21034;-77
2022/12/10 04:46:49;;;;;;;5.70;3.00;;;;;;;0.84;100.00;100244.33;1738037;81;20995;-77
2022/12/10 04:49:33;;;;;;;6.35;3.95;;;;;;;0.86;100.00;100224.73;1786947;79;20967;-77
2022/12/10 04:52:18;;;;;;;5.92;2.98;;;;;;;0.85;100.00;100217.72;1813509;78;21475;-77
2022/12/10 04:55:04;;;;;;;5.70;3.00;;;;;;;0.83;100.00;100214.95;1690403;83;21533;-77
2022/12/10 04:57:48;;;;;;;4.67;2.52;;;;;;;0.84;100.00;100218.78;1752018;80;20982;-77
2022/12/10 05:00:33;;;;;;;7.72;3.52;;;;;;;0.83;100.00;100221.15;1784691;78;21053;-79
2022/12/10 05:03:17;;;;;;;4.42;2.58;;;;;;;0.82;100.00;100224.89;1813895;78;20995;-79
2022/12/10 05:06:09;;;;;;;5.00;2.35;;;;;;;0.80;100.00;100217.56;1685194;84;21003;-79
2022/12/10 05:08:54;;;;;;;7.67;3.02;;;;;;;0.84;100.00;100216.58;1807286;78;21446;-79
2022/12/10 05:11:39;;;;;;;7.97;3.27;;;;;;;0.81;100.00;100213.81;1787677;79;21015;-79
2022/12/10 05:14:25;;;;;;;4.97;2.85;;;;;;;0.80;100.00;100208.67;1795097;79;20974;-79
2022/12/10 05:17:10;;;;;;;6.37;3.22;;;;;;;0.81;100.00;100217.03;1794987;78;21516;-79
2022/12/10 05:19:54;;;;;;;6.65;2.90;;;;;;;0.81;100.00;100221.88;1809829;78;21015;-79
2022/12/10 05:25:54;;;;;;;;;;;;;;;0.78;100.00;100220.98;1710751;81;20958;-79
2022/12/10 05:28:42;;;;;;;6.83;2.95;;;;;;;0.79;100.00;100204.32;1728272;82;20148;-79
2022/12/10 05:31:29;;;;;;;4.75;2.67;;;;;;;0.79;100.00;100205.17;1775848;78;22077;-79
2022/12/10 05:34:14;;;;;;;6.40;3.65;;;;;;;0.78;100.00;100205.38;1778405;78;21413;-79
2022/12/10 05:36:59;;;;;;;5.22;2.95;;;;;;;0.79;100.00;100210.55;1766589;80;21009;-79
2022/12/10 05:39:44;;;;;;;7.90;3.25;;;;;;;0.79;100.00;100211.89;1771574;79;21014;-80
2022/12/10 05:42:29;;;;;;;5.00;2.75;;;;;;;0.79;100.00;100202.48;1780471;79;20980;-80
2022/12/10 05:45:14;;;;;;;6.10;3.33;;;;;;;0.80;100.00;100203.30;1788390;78;20983;-80
2022/12/10 05:47:58;;;;;;;7.58;3.45;;;;;;;0.81;100.00;100202.23;1809047;78;21493;-80
2022/12/10 05:50:43;;;;;;;4.15;2.72;;;;;;;0.83;100.00;100193.43;1794353;79;20983;-79
2022/12/10 05:53:28;;;;;;;6.90;2.80;;;;;;;0.82;100.00;100191.27;1790642;78;21030;-80
2022/12/10 05:56:18;;;;;;;5.10;3.05;;;;;;;0.82;100.00;100183.20;1759470;78;21453;-79
2022/12/10 05:59:03;;;;;;;5.78;3.45;;;;;;;0.83;100.00;100187.52;1783036;78;20983;-79
2022/12/10 06:01:47;;;;;;;5.17;3.15;;;;;;;0.84;100.00;100190.53;1794247;79;21555;-79
2022/12/10 06:04:33;;;;;;;5.05;3.60;;;;;;;0.84;100.00;100181.12;1795276;79;21003;-79
2022/12/10 06:07:18;;;;;;;4.83;2.72;;;;;;;0.86;100.00;100171.45;1743784;81;21010;-79
2022/12/10 06:10:02;;;;;;;3.70;2.42;;;;;;;0.89;100.00;100167.00;1733522;81;21050;-79
2022/12/10 06:12:47;;;;;;;6.15;3.27;;;;;;;0.92;100.00;100161.17;1791369;80;21070;-79
2022/12/10 06:15:32;;;;;;;5.03;2.75;;;;;;;0.96;100.00;100170.95;1792346;80;21017;-79
2022/12/10 06:18:17;;;;;;;6.55;3.65;;;;;;;0.99;100.00;100167.80;1793617;79;21470;-79
2022/12/10 06:21:07;;;;;;;3.87;2.67;;;;;;;1.02;100.00;100167.38;1792558;79;21022;-79
2022/12/10 06:23:52;;;;;;;4.97;2.40;;;;;;;1.05;100.00;100164.23;1792653;80;21054;-79
2022/12/10 06:26:37;;;;;;;5.22;3.02;;;;;;;1.07;100.00;100175.08;1728516;82;21015;-79
2022/12/10 06:29:21;;;;;;;5.47;3.12;;;;;;;1.11;100.00;100164.67;1794485;79;21038;-79
2022/12/10 06:32:06;;;;;;;5.70;2.62;;;;;;;1.15;100.00;100157.80;1795105;79;20990;-79
2022/12/10 06:34:50;;;;;;;3.83;2.77;;;;;;;1.16;100.00;100166.70;1795913;79;21026;-79
2022/12/10 06:37:36;;;;;;;6.37;3.20;;;;;;;1.17;100.00;100159.75;1795306;79;21002;-79
2022/12/10 06:40:20;;;;;;;6.58;3.00;;;;;;;1.20;100.00;100156.61;1795470;79;20991;-79
2022/12/10 06:43:07;;;;;;;4.15;2.62;;;;;;;1.22;100.00;100151.83;1795157;79;20987;-79
2022/12/10 06:45:52;;;;;;;6.62;2.70;;;;;;;1.23;100.00;100145.38;1795997;79;20887;-79
2022/12/10 06:48:37;;;;;;;4.00;2.98;;;;;;;1.28;100.00;100146.88;1794534;79;21461;-79
2022/12/10 06:51:22;;;;;;;5.42;2.77;;;;;;;1.31;100.00;100148.82;1713613;83;21027;-79
2022/12/10 06:54:06;;;;;;;3.72;2.40;;;;;;;1.33;100.00;100146.73;1711757;83;21054;-79
2022/12/10 06:56:51;;;;;;;4.33;2.92;;;;;;;1.35;100.00;100150.02;1787309;79;20995;-79
2022/12/10 10:13:55;;;;;;;33.63;18.23;;;;;;;1.99;100.00;99788.76;1852815;77;22570;-83
2022/12/10 10:16:54;;;;;;;33.78;15.68;;;;;;;2.03;100.00;99798.02;1825887;78;21041;-83
2022/12/10 10:19:41;;;;;;;32.40;16.05;;;;;;;2.07;100.00;99795.11;1825122;78;20986;-84
2022/12/10 10:22:26;;;;;;;25.97;9.65;;;;;;;2.15;100.00;99789.36;1825082;78;21081;-84
2022/12/10 10:25:16;;;;;;;40.88;17.42;;;;;;;2.16;100.00;99790.17;1825786;78;20973;-83
2022/12/10 10:28:01;;;;;;;20.48;9.60;;;;;;;2.17;100.00;99776.16;1799529;78;21045;-83
2022/12/10 10:30:46;;;;;;;21.70;8.73;;;;;;;2.18;100.00;99768.35;1825801;78;21503;-83
2022/12/10 10:33:31;;;;;;;20.60;8.35;;;;;;;2.21;100.00;99761.97;1798767;78;20969;-83
2022/12/10 10:36:16;;;;;;;19.67;8.80;;;;;;;2.27;100.00;99760.17;1775237;77;21060;-84
2022/12/10 10:39:20;;;;;;;21.12;8.53;;;;;;;2.29;100.00;99764.80;1825566;78;20970;-84
2022/12/10 10:42:09;;;;;;;28.67;10.05;;;;;;;2.32;100.00;99755.69;1824484;78;20981;-84
2022/12/10 10:44:54;;;;;;;21.02;9.08;;;;;;;2.35;100.00;99744.98;1825604;78;21001;-84
2022/12/10 10:47:40;;;;;;;21.15;8.23;;;;;;;2.37;100.00;99752.27;1825532;78;20961;-83
2022/12/10 10:50:27;;;;;;;21.27;9.35;;;;;;;2.37;100.00;99746.88;1825558;78;20993;-83
2022/12/10 10:53:34;;;;;;;30.35;14.13;;;;;;;2.41;100.00;99739.13;1826131;78;21009;-84
2022/12/10 10:56:29;;;;;;;25.95;11.25;;;;;;;2.43;100.00;99737.83;1825515;78;21020;-83
2022/12/10 10:59:19;;;;;;;23.83;9.05;;;;;;;2.43;100.00;99737.83;1825728;78;21001;-81
2022/12/10 11:02:21;;;;;;;20.50;8.68;;;;;;;2.42;100.00;99733.48;1825501;78;20997;-82
2022/12/10 11:05:16;;;;;;;32.03;13.88;;;;;;;2.46;100.00;99727.89;1825651;78;21482;-82
2022/12/10 11:08:11;;;;;;;26.48;10.70;;;;;;;2.49;100.00;99713.91;1826640;78;20949;-82
2022/12/10 11:11:01;;;;;;;21.97;9.60;;;;;;;2.49;100.00;99711.75;1825584;78;20969;-82
2022/12/10 11:13:46;;;;;;;24.18;8.63;;;;;;;2.53;100.00;99716.96;1803277;78;21447;-83
2022/12/10 11:16:33;;;;;;;17.52;8.05;;;;;;;2.55;100.00;99714.30;1828720;77;21071;-82
2022/12/10 11:19:23;;;;;;;65.72;29.85;;;;;;;2.56;100.00;99701.63;1828436;78;20973;-82
2022/12/10 11:22:23;;;;;;;22.37;11.18;;;;;;;2.57;100.00;99694.66;1829491;77;20980;-82
2022/12/10 11:25:11;;;;;;;25.60;9.95;;;;;;;2.57;100.00;99691.11;1828422;78;21029;-82
2022/12/10 11:28:04;;;;;;;21.45;8.35;;;;;;;2.59;100.00;99692.50;1828432;78;21020;-83
2022/12/10 11:31:10;;;;;;;28.25;9.78;;;;;;;2.61;100.00;99685.53;1828317;78;21001;-84
2022/12/10 11:34:14;;;;;;;19.85;8.13;;;;;;;2.64;100.00;99681.52;1828853;78;20966;-83
2022/12/10 11:37:19;;;;;;;19.90;6.95;;;;;;;2.68;100.00;99689.41;1799215;78;21054;-84
2022/12/10 11:40:33;;;;;;;72.05;34.73;;;;;;;2.70;100.00;99676.50;1828712;78;21001;-83
2022/12/10 11:43:44;;;;;;;40.40;19.80;;;;;;;2.72;100.00;99678.40;1806066;78;20997;-84
2022/12/10 11:47:01;;;;;;;26.37;11.35;;;;;;;2.78;100.00;99667.98;1803132;78;20993;-83
2022/12/10 11:50:01;;;;;;;20.15;9.20;;;;;;;2.83;100.00;99663.20;1779218;79;21549;-83
2022/12/10 11:53:09;;;;;;;54.27;26.45;;;;;;;2.87;100.00;99658.41;1802865;79;21448;-83
2022/12/10 11:56:23;;;;;;;148.10;63.42;;;;;;;2.94;100.00;99652.81;1802752;79;20974;-83
2022/12/10 11:59:22;;;;;;;65.28;29.48;;;;;;;3.00;100.00;99645.09;1802976;79;21057;-83
2022/12/10 12:02:51;;;;;;;44.45;19.45;;;;;;;3.06;100.00;99639.22;1803099;79;21477;-83
2022/12/10 12:06:06;;;;;;;29.10;15.18;;;;;;;3.12;100.00;99626.09;1744893;82;21057;-83
2022/12/10 12:09:22;;;;;;;24.60;11.75;;;;;;;3.18;100.00;99615.09;1800946;79;20987;-83
2022/12/10 12:12:43;;;;;;;24.65;14.15;;;;;;;3.21;100.00;99611.91;1804526;78;21016;-83
2022/12/10 12:15:32;;;;;;;24.80;10.93;;;;;;;3.22;100.00;99614.06;1813654;78;21532;-83
2022/12/10 12:18:33;;;;;;;24.98;10.30;;;;;;;3.26;100.00;99596.27;1813534;79;20998;-83
2022/12/10 12:21:19;;;;;;;104.40;49.08;;;;;;;3.28;100.00;99598.73;1813879;78;21033;-83
2022/12/10 12:24:15;;;;;;;69.37;29.85;;;;;;;3.31;100.00;99592.28;1730599;81;20982;-83
2022/12/10 12:27:12;;;;;;;25.12;12.20;;;;;;;3.37;100.00;99595.34;1736748;81;21038;-83
2022/12/10 12:30:15;;;;;;;28.47;12.90;;;;;;;3.42;100.00;99589.99;1812693;79;20994;-83
2022/12/10 12:33:22;;;;;;;24.47;9.90;;;;;;;3.47;100.00;99588.43;1751694;80;21057;-83
2022/12/10 12:36:23;;;;;;;22.85;9.40;;;;;;;3.49;100.00;99605.17;1812596;79;21041;-83
2022/12/10 12:39:30;;;;;;;29.35;11.25;;;;;;;3.60;100.00;99613.69;1814263;79;20966;-83
2022/12/10 12:42:20;;;;;;;32.70;11.78;;;;;;;3.69;100.00;99615.41;1813564;79;21029;-83
2022/12/10 12:45:10;;;;;;;27.93;11.73;;;;;;;3.72;100.00;99621.11;1813475;78;21013;-84
2022/12/10 12:48:15;;;;;;;38.83;18.80;;;;;;;3.78;100.00;99617.38;1813517;78;20880;-84
2022/12/10 12:51:10;;;;;;;55.73;24.52;;;;;;;3.84;100.00;99618.27;1813491;78;21516;-84
2022/12/10 12:53:55;;;;;;;31.15;15.10;;;;;;;3.88;100.00;99622.91;1814229;79;20981;-84
2022/12/10 12:57:06;;;;;;;34.78;16.32;;;;;;;3.90;100.00;99616.42;1813454;78;21535;-83
2022/12/10 16:18:12;;;;;;;53.55;25.08;;;;;;;3.36;100.00;99653.13;1878833;76;23140;-85
2022/12/10 16:20:56;;;;;;;50.85;22.95;;;;;;;3.47;100.00;99666.76;1839576;77;20994;-85
2022/12/10 16:23:42;;;;;;;47.95;22.35;;;;;;;3.57;100.00;99664.17;1834053;78;21002;-85
2022/12/10 16:26:28;;;;;;;56.53;25.70;;;;;;;3.69;100.00;99666.20;1834204;78;20971;-86
2022/12/10 16:29:12;;;;;;;50.40;24.20;;;;;;;3.73;100.00;99665.97;1834092;78;20967;-85
2022/12/10 16:31:57;;;;;;;52.03;24.90;;;;;;;3.79;100.00;99662.27;1834112;78;21057;-85
2022/12/10 16:34:42;;;;;;;50.70;25.27;;;;;;;3.76;100.00;99658.72;1834104;78;20975;-85
2022/12/10 16:37:30;;;;;;;50.70;23.10;;;;;;;3.80;100.00;99671.18;1832800;78;20982;-88
2022/12/10 16:40:16;;;;;;;57.10;25.17;;;;;;;3.79;100.00;99666.31;1816058;77;21033;-92
2022/12/10 16:43:01;;;;;;;57.70;27.93;;;;;;;3.83;100.00;99668.80;1790776;77;20966;-88
2022/12/10 16:45:46;;;;;;;69.80;30.77;;;;;;;3.73;100.00;99668.66;1746004;81;21439;-92
2022/12/10 16:48:31;;;;;;;72.25;32.58;;;;;;;3.67;100.00;99658.89;1746721;80;20907;-92
2022/12/10 16:51:28;;;;;;;68.40;31.00;;;;;;;3.68;100.00;99664.56;1752786;81;21394;-92
2022/12/10 16:54:14;;;;;;;59.48;29.70;;;;;;;3.66;100.00;99664.83;1778812;79;20955;-94
2022/12/10 16:56:59;;;;;;;62.23;31.00;;;;;;;3.68;100.00;99667.26;1822007;77;20962;-91
2022/12/10 16:59:44;;;;;;;58.70;28.12;;;;;;;3.73;100.00;99657.86;1825517;77;20963;-87
2022/12/10 17:02:30;;;;;;;59.98;31.68;;;;;;;3.74;100.00;99657.34;1834326;78;20990;-87
2022/12/10 17:05:31;;;;;;;66.57;32.55;;;;;;;3.74;100.00;99656.80;1816699;77;21543;-87
2022/12/10 17:08:17;;;;;;;68.02;30.45;;;;;;;3.75;100.00;99648.97;1818146;78;21030;-86
2022/12/10 17:14:25;;;;;;;75.32;36.03;;;;;;;3.74;100.00;99644.64;1836850;77;21029;-87
2022/12/10 17:17:10;;;;;;;80.60;37.88;;;;;;;3.78;100.00;99652.50;1836424;77;21393;-88
2022/12/10 17:19:57;;;;;;;76.10;35.28;;;;;;;3.80;100.00;99643.61;1815115;77;20963;-86
2022/12/10 17:22:42;;;;;;;71.57;31.48;;;;;;;3.81;100.00;99651.21;1827941;78;20886;-86
2022/12/10 17:25:27;;;;;;;57.50;26.07;;;;;;;3.80;100.00;99654.42;1783887;78;20981;-87
2022/12/10 17:28:16;;;;;;;46.45;24.18;;;;;;;3.76;100.00;99645.21;1760469;80;21000;-86
2022/12/10 17:31:01;;;;;;;47.83;24.15;;;;;;;3.80;100.00;99635.51;1816042;78;21531;-87
2022/12/10 17:33:46;;;;;;;50.17;21.57;;;;;;;3.82;100.00;99640.13;1814264;77;20993;-87
2022/12/10 17:36:31;;;;;;;43.50;20.43;;;;;;;3.81;100.00;99654.72;1833141;77;21039;-87
2022/12/10 17:39:17;;;;;;;39.83;19.75;;;;;;;3.74;100.00;99658.16;1810189;77;20982;-87
2022/12/10 17:42:04;;;;;;;39.75;18.85;;;;;;;3.77;100.00;99648.18;1833727;77;21000;-86
2022/12/10 17:44:49;;;;;;;38.80;19.50;;;;;;;3.75;100.00;99644.91;1777382;78;21527;-86
2022/12/10 17:47:35;;;;;;;42.45;19.92;;;;;;;3.76;100.00;99647.91;1764343;80;21656;-86
2022/12/10 17:50:35;;;;;;;42.93;19.20;;;;;;;3.78;100.00;99645.75;1828303;76;21017;-86
2022/12/10 17:53:21;;;;;;;35.60;17.07;;;;;;;3.73;100.00;99647.59;1819248;78;21396;-86
2022/12/10 17:56:20;;;;;;;46.80;21.00;;;;;;;3.70;100.00;99650.27;1833680;76;20990;-86
2022/12/10 17:59:05;;;;;;;49.10;25.92;;;;;;;3.64;100.00;99655.34;1835944;77;21057;-87
2022/12/10 18:01:50;;;;;;;55.05;26.62;;;;;;;3.62;100.00;99650.72;1827273;77;21010;-86
2022/12/10 18:04:35;;;;;;;58.78;25.65;;;;;;;3.63;100.00;99649.64;1824655;76;21022;-87
2022/12/10 18:07:20;;;;;;;46.60;22.20;;;;;;;3.67;100.00;99646.73;1817280;78;21413;-87
2022/12/10 18:10:06;;;;;;;47.25;23.87;;;;;;;3.70;100.00;99652.16;1804339;77;21485;-86
2022/12/10 18:12:53;;;;;;;56.10;26.85;;;;;;;3.75;100.00;99648.16;1757405;81;21078;-86
2022/12/10 18:15:38;;;;;;;65.03;30.20;;;;;;;3.78;100.00;99659.80;1753067;80;21024;-86
2022/12/10 18:18:23;;;;;;;62.60;29.55;;;;;;;3.85;100.00;99663.13;1819892;78;21365;-86
2022/12/10 18:21:09;;;;;;;68.28;32.48;;;;;;;3.86;100.00;99664.23;1793579;78;20984;-85
2022/12/10 18:23:55;;;;;;;61.13;30.25;;;;;;;3.86;100.00;99660.18;1811310;78;21006;-85
2022/12/10 18:26:44;;;;;;;70.03;31.70;;;;;;;3.90;100.00;99659.66;1818818;78;21126;-87
2022/12/10 18:29:31;;;;;;;66.45;28.95;;;;;;;3.90;100.00;99669.94;1809406;78;20957;-87
2022/12/10 18:32:16;;;;;;;57.88;28.95;;;;;;;3.91;100.00;99669.39;1775688;79;20995;-85
2022/12/10 18:35:01;;;;;;;60.92;28.57;;;;;;;3.88;100.00;99671.56;1813182;78;20990;-85
2022/12/10 18:37:46;;;;;;;59.18;26.48;;;;;;;3.87;100.00;99675.86;1756111;79;20990;-85
2022/12/10 18:40:31;;;;;;;50.03;22.00;;;;;;;3.87;100.00;99675.86;1752466;81;21050;-86
2022/12/10 18:43:16;;;;;;;44.53;21.57;;;;;;;3.87;100.00;99673.97;1752264;80;21061;-86
2022/12/10 18:46:02;;;;;;;78.47;31.60;;;;;;;3.86;100.00;99676.94;1757278;80;21525;-86
2022/12/10 18:48:46;;;;;;;63.52;26.42;;;;;;;3.86;100.00;99682.34;1752860;81;21462;-86
2022/12/10 18:51:32;;;;;;;59.10;27.82;;;;;;;3.86;100.00;99676.94;1761036;80;21010;-87
2022/12/10 18:54:17;;;;;;;48.17;24.27;;;;;;;3.88;100.00;99679.67;1821381;77;21484;-86
2022/12/10 18:57:02;;;;;;;50.85;23.55;;;;;;;3.85;100.00;99677.45;1818392;78;21463;-87
